createdAt,value
2019-05-01T00:04:11.135Z,101382.54
2019-05-01T00:09:14.944Z,101371.36
2019-05-01T00:14:19.702Z,101363.03
2019-05-01T00:19:22.917Z,101357.36
2019-05-01T00:24:26.234Z,101352.34
2019-05-01T00:29:29.349Z,101350.45
2019-05-01T00:34:32.835Z,101341.48
2019-05-01T00:39:36.477Z,101339.67
2019-05-01T00:44:40.041Z,101327.94
2019-05-01T00:49:43.511Z,101328.87
2019-05-01T00:54:48.730Z,101331.91
2019-05-01T01:00:14.090Z,101335.50
2019-05-01T01:05:17.405Z,101321.81
2019-05-01T01:10:20.916Z,101318.80
2019-05-01T01:15:24.143Z,101321.04
2019-05-01T01:20:27.044Z,101313.05
2019-05-01T01:25:29.948Z,101317.64
2019-05-01T01:30:33.225Z,101299.25
2019-05-01T01:35:36.954Z,101294.87
2019-05-01T01:40:40.140Z,101286.00
2019-05-01T01:45:46.566Z,101276.42
2019-05-01T01:50:50.111Z,101280.91
2019-05-01T01:55:53.661Z,101272.31
2019-05-01T02:01:25.990Z,101269.55
2019-05-01T02:06:30.539Z,101264.69
2019-05-01T02:11:33.449Z,101273.62
2019-05-01T02:16:37.050Z,101269.72
2019-05-01T02:21:40.628Z,101264.47
2019-05-01T02:26:46.929Z,101258.73
2019-05-01T02:31:52.390Z,101252.84
2019-05-01T02:36:58.807Z,101248.27
2019-05-01T02:42:02.475Z,101236.00
2019-05-01T02:47:09.327Z,101239.80
2019-05-01T02:52:12.645Z,101233.95
2019-05-01T02:57:19.535Z,101228.41
2019-05-01T03:02:26.244Z,101225.22
2019-05-01T03:07:32.900Z,101219.50
2019-05-01T03:12:39.182Z,101208.53
2019-05-01T03:17:50.920Z,101208.20
2019-05-01T03:23:11.936Z,101198.56
2019-05-01T03:28:15.256Z,101196.45
2019-05-01T03:33:18.745Z,101193.59
2019-05-01T03:38:21.931Z,101190.20
2019-05-01T03:43:25.286Z,101188.84
2019-05-01T03:48:29.822Z,101182.97
2019-05-01T03:53:34.048Z,101182.98
2019-05-01T03:58:37.216Z,101180.28
2019-05-01T04:03:47.194Z,101182.69
2019-05-01T04:08:51.847Z,101188.63
2019-05-01T04:13:54.986Z,101175.94
2019-05-01T04:18:59.200Z,101172.50
2019-05-01T04:24:03.255Z,101174.73
2019-05-01T04:29:30.158Z,101181.27
2019-05-01T04:34:42.486Z,101177.09
2019-05-01T04:39:45.946Z,101179.27
2019-05-01T04:44:49.852Z,101177.86
2019-05-01T04:49:53.508Z,101178.51
2019-05-01T04:54:56.556Z,101173.69
2019-05-01T05:00:00.345Z,101179.12
2019-05-01T05:05:04.034Z,101174.77
2019-05-01T05:10:07.397Z,101175.61
2019-05-01T05:15:26.818Z,101179.24
2019-05-01T05:20:29.888Z,101172.87
2019-05-01T05:25:33.640Z,101174.95
2019-05-01T05:30:37.207Z,101173.16
2019-05-01T05:35:42.481Z,101180.77
2019-05-01T05:40:46.780Z,101173.48
2019-05-01T05:45:50.165Z,101162.23
2019-05-01T05:51:25.469Z,101161.25
2019-05-01T05:56:38.119Z,101164.65
2019-05-01T06:02:00.767Z,101156.53
2019-05-01T06:07:24.353Z,101155.27
2019-05-01T06:12:41.653Z,101161.85
2019-05-01T06:17:59.228Z,101159.49
2019-05-01T06:23:27.868Z,101162.67
2019-05-01T06:28:31.078Z,101153.08
2019-05-01T06:33:43.893Z,101154.86
2019-05-01T06:38:39.409Z,101149.00
2019-05-01T06:44:04.392Z,101145.20
2019-05-01T06:49:24.238Z,101136.98
2019-05-01T06:54:29.096Z,101135.53
2019-05-01T06:59:34.282Z,101133.38
2019-05-01T07:04:39.673Z,101131.06
2019-05-01T07:09:44.077Z,101142.09
2019-05-01T07:14:50.807Z,101132.31
2019-05-01T07:20:16.802Z,101130.85
2019-05-01T07:25:20.689Z,101128.44
2019-05-01T07:30:30.618Z,101131.00
2019-05-01T07:35:36.758Z,101125.11
2019-05-01T07:40:41.064Z,101127.72
2019-05-01T07:45:52.595Z,101130.03
2019-05-01T07:50:55.901Z,101123.88
2019-05-01T07:55:59.303Z,101116.88
2019-05-01T08:01:33.963Z,101118.56
2019-05-01T08:06:37.135Z,101123.33
2019-05-01T08:11:44.155Z,101115.92
2019-05-01T08:16:45.440Z,101115.37
2019-05-01T08:22:03.143Z,101124.27
2019-05-01T08:27:08.927Z,101132.05
2019-05-01T08:32:33.900Z,101127.53
2019-05-01T08:37:35.915Z,101122.48
2019-05-01T08:42:42.515Z,101130.27
2019-05-01T08:47:46.880Z,101116.92
2019-05-01T08:52:50.403Z,101125.02
2019-05-01T08:57:55.359Z,101125.07
2019-05-01T09:03:08.248Z,101115.70
2019-05-01T09:08:04.165Z,101107.86
2019-05-01T09:13:07.154Z,101120.09
2019-05-01T09:18:10.615Z,101118.56
2019-05-01T09:23:14.608Z,101122.34
2019-05-01T09:28:29.412Z,101105.63
2019-05-01T09:33:32.148Z,101109.78
2019-05-01T09:38:35.664Z,101113.15
2019-05-01T09:43:39.001Z,101114.41
2019-05-01T09:48:42.812Z,101118.49
2019-05-01T09:54:05.594Z,101111.61
2019-05-01T09:59:12.685Z,101115.13
2019-05-01T10:04:14.431Z,101095.76
2019-05-01T10:09:18.063Z,101099.62
2019-05-01T10:14:21.072Z,101092.11
2019-05-01T10:19:24.694Z,101107.41
2019-05-01T10:24:31.970Z,101096.70
2019-05-01T10:29:52.732Z,101093.86
2019-05-01T10:35:19.298Z,101084.04
2019-05-01T10:40:27.080Z,101082.89
2019-05-01T10:45:28.616Z,101075.97
2019-05-01T10:50:31.795Z,101076.97
2019-05-01T10:55:35.274Z,101070.25
2019-05-01T11:00:40.961Z,101066.83
2019-05-01T11:05:55.364Z,101055.56
2019-05-01T11:10:50.746Z,101053.78
2019-05-01T11:15:53.844Z,101050.66
2019-05-01T11:20:57.486Z,101054.06
2019-05-01T11:26:00.717Z,101061.48
2019-05-01T11:31:05.491Z,101047.75
2019-05-01T11:36:21.458Z,101041.18
2019-05-01T11:41:41.257Z,101030.28
2019-05-01T11:46:44.166Z,101058.30
2019-05-01T11:51:47.647Z,101030.50
2019-05-01T11:56:50.288Z,101029.34
2019-05-01T12:01:53.849Z,101035.88
2019-05-01T12:06:57.112Z,101039.23
2019-05-01T12:12:04.089Z,101024.91
2019-05-01T12:17:14.337Z,101041.78
2019-05-01T12:22:17.879Z,101041.66
2019-05-01T12:27:20.915Z,101024.77
2019-05-01T12:32:24.088Z,101017.92
2019-05-01T12:37:32.789Z,101022.45
2019-05-01T12:42:36.858Z,101025.23
2019-05-01T12:47:59.825Z,101015.94
2019-05-01T12:58:36.554Z,101014.22
2019-05-01T13:03:39.779Z,101016.41
2019-05-01T13:08:42.892Z,101016.55
2019-05-01T13:13:48.859Z,101020.65
2019-05-01T13:18:52.410Z,101017.08
2019-05-01T13:23:56.144Z,101015.39
2019-05-01T13:29:03.194Z,101017.58
2019-05-01T13:34:06.516Z,101010.02
2019-05-01T13:39:11.711Z,100991.28
2019-05-01T13:44:15.190Z,100985.41
2019-05-01T13:49:18.846Z,100980.81
2019-05-01T13:54:22.185Z,100977.39
2019-05-01T13:59:25.954Z,100968.95
2019-05-01T14:04:30.285Z,100948.63
2019-05-01T14:09:33.668Z,100960.77
2019-05-01T14:14:37.115Z,100953.07
2019-05-01T14:19:43.480Z,100951.30
2019-05-01T14:24:51.875Z,100945.66
2019-05-01T14:29:55.535Z,100943.05
2019-05-01T14:34:58.887Z,100945.19
2019-05-01T14:40:02.412Z,100936.83
2019-05-01T14:45:08.557Z,100941.59
2019-05-01T14:50:13.081Z,100940.78
2019-05-01T14:55:16.951Z,100939.20
2019-05-01T15:00:20.552Z,100944.32
2019-05-01T15:05:24.069Z,100931.48
2019-05-01T15:10:29.813Z,100931.81
2019-05-01T15:15:55.082Z,100919.16
2019-05-01T15:21:00.962Z,100911.59
2019-05-01T15:26:04.733Z,100909.31
2019-05-01T15:31:08.702Z,100907.11
2019-05-01T15:36:12.302Z,100887.27
2019-05-01T15:41:33.744Z,100896.84
2019-05-01T15:46:39.721Z,100900.14
2019-05-01T15:51:44.022Z,100905.91
2019-05-01T15:56:47.761Z,100901.98
2019-05-01T16:01:51.081Z,100894.30
2019-05-01T16:06:54.118Z,100897.55
2019-05-01T16:12:16.967Z,100890.47
2019-05-01T16:17:20.366Z,100886.59
2019-05-01T16:22:23.937Z,100875.19
2019-05-01T16:27:27.800Z,100886.20
2019-05-01T16:32:31.136Z,100883.06
2019-05-01T16:37:34.809Z,100881.71
2019-05-01T16:42:40.508Z,100873.10
2019-05-01T16:47:44.181Z,100868.81
2019-05-01T16:52:48.124Z,100868.74
2019-05-01T16:57:51.784Z,100854.66
2019-05-01T17:03:15.857Z,100850.69
2019-05-01T17:08:36.580Z,100856.78
2019-05-01T17:13:36.195Z,100839.16
2019-05-01T17:18:39.493Z,100842.59
2019-05-01T17:23:43.265Z,100833.70
2019-05-01T17:28:46.904Z,100826.50
2019-05-01T17:33:50.916Z,100818.44
2019-05-01T17:38:55.533Z,100817.39
2019-05-01T17:43:59.117Z,100813.53
2019-05-01T17:49:09.169Z,100810.00
2019-05-01T17:54:09.783Z,100799.25
2019-05-01T17:59:13.283Z,100802.41
2019-05-01T18:04:22.974Z,100803.37
2019-05-01T18:09:26.639Z,100800.91
2019-05-01T18:14:30.127Z,100799.21
2019-05-01T18:19:33.328Z,100811.40
2019-05-01T18:25:10.014Z,100800.52
2019-05-01T18:30:15.944Z,100801.18
2019-05-01T18:35:20.852Z,100794.15
2019-05-01T18:40:35.432Z,100785.76
2019-05-01T18:45:56.613Z,100781.16
2019-05-01T18:51:00.493Z,100782.41
2019-05-01T18:56:05.672Z,100783.34
2019-05-01T19:01:10.851Z,100784.95
2019-05-01T19:06:14.376Z,100783.94
2019-05-01T19:11:18.084Z,100777.84
2019-05-01T19:16:22.423Z,100772.76
2019-05-01T19:21:29.467Z,100774.41
2019-05-01T19:26:38.321Z,100764.92
2019-05-01T19:31:41.946Z,100775.68
2019-05-01T19:36:46.367Z,100762.59
2019-05-01T19:41:54.334Z,100763.80
2019-05-01T19:46:57.128Z,100766.46
2019-05-01T19:52:01.972Z,100760.29
2019-05-01T19:57:06.060Z,100751.92
2019-05-01T20:02:11.420Z,100753.52
2019-05-01T20:07:17.354Z,100752.52
2019-05-01T20:12:21.260Z,100751.06
2019-05-01T20:17:24.987Z,100750.87
2019-05-01T20:22:28.790Z,100750.42
2019-05-01T20:27:32.588Z,100749.88
2019-05-01T20:32:35.880Z,100744.42
2019-05-01T20:37:39.532Z,100734.57
2019-05-01T20:42:43.189Z,100729.47
2019-05-01T20:47:48.257Z,100720.30
2019-05-01T20:52:51.613Z,100719.91
2019-05-01T20:58:14.491Z,100701.81
2019-05-01T21:03:18.333Z,100691.67
2019-05-01T21:08:41.770Z,100692.03
2019-05-01T21:13:45.078Z,100678.98
2019-05-01T21:18:48.682Z,100679.48
2019-05-01T21:23:53.356Z,100658.70
2019-05-01T21:28:56.798Z,100665.33
2019-05-01T21:34:00.303Z,100661.94
2019-05-01T21:39:05.725Z,100646.70
2019-05-01T21:44:09.090Z,100643.11
2019-05-01T21:49:13.125Z,100639.08
2019-05-01T21:54:20.608Z,100630.00
2019-05-01T21:59:21.252Z,100625.52
2019-05-01T22:04:28.061Z,100614.59
2019-05-01T22:09:30.424Z,100609.07
2019-05-01T22:14:45.636Z,100600.73
2019-05-01T22:19:49.741Z,100587.67
2019-05-01T22:25:12.262Z,100586.48
2019-05-01T22:30:24.349Z,100572.85
2019-05-01T22:35:30.073Z,100567.79
2019-05-01T22:40:50.210Z,100558.92
2019-05-01T22:45:56.223Z,100557.28
2019-05-01T22:51:04.221Z,100558.31
2019-05-01T22:56:06.699Z,100548.41
2019-05-01T23:01:13.396Z,100540.83
2019-05-01T23:06:15.332Z,100526.09
2019-05-01T23:11:19.995Z,100526.78
2019-05-01T23:16:31.009Z,100534.95
2019-05-01T23:21:33.814Z,100518.11
2019-05-01T23:26:36.570Z,100508.43
2019-05-01T23:31:40.099Z,100504.08
2019-05-01T23:36:43.410Z,100496.56
2019-05-01T23:41:47.154Z,100487.41
2019-05-01T23:46:50.435Z,100481.27
2019-05-01T23:51:53.688Z,100473.27
2019-05-01T23:56:56.775Z,100468.10
